Last 24 Hours

Red Mountain

10 Minute Data | America/Los_Angeles
as of 5/7/26 12:21 AM PDT
Date & Time Temp (°F) Dew Pt (°F) RH (%) Wind Spd (mph) Wind Dir (°) Wind Gust (mph) Wind Gst Dir (°) Daily Max Temp (°F) Daily Min Temp (°F)
5/7/26 - 0020 59.5 40.8 50 6.4 NNW | 332 8.6 NW | 316 63.7 40.4
5/7/26 - 0010 59.7 40.9 50 6.6 NNW | 336 8.9 NNW | 334 63.7 40.4
5/7/26 - 0000 60.0 40.4 48 6.6 NW | 322 8.0 NW | 322 63.7 40.4
5/6/26 - 2350 59.4 41.1 51 7.0 NW | 326 9.4 WNW | 303 63.7 40.4
5/6/26 - 2340 59.0 42.2 54 6.9 NNW | 342 9.1 NNW | 334 63.7 40.4
5/6/26 - 2330 58.8 42.9 56 7.1 NNW | 347 9.1 NNW | 344 63.7 40.4
5/6/26 - 2320 59.0 42.6 54 6.5 N | 351 7.2 N | 354 63.7 40.4
5/6/26 - 2310 58.7 43.2 56 6.3 N | 350 7.2 N | 0 63.7 40.4
5/6/26 - 2300 58.2 43.8 59 5.9 N | 2 7.2 N | 0 63.7 40.4
5/6/26 - 2250 57.2 45.2 64 6.1 N | 359 7.6 N | 0 63.7 40.4
5/6/26 - 2240 56.8 45.7 66 7.8 N | 4 8.8 N | 8 63.7 40.4
5/6/26 - 2230 56.4 46.4 69 7.4 NNE | 12 8.0 NNE | 23 63.7 40.4
5/6/26 - 2220 55.8 47.6 74 6.6 NNE | 22 7.8 NNE | 22 63.7 40.4
5/6/26 - 2210 56.3 47.0 71 6.5 N | 1 8.6 N | 6 63.7 40.4
5/6/26 - 2200 56.3 46.7 70 7.0 N | 2 8.0 N | 5 63.7 40.4
5/6/26 - 2150 56.2 47.2 72 10.1 N | 9 11.9 N | 4 63.7 40.4
5/6/26 - 2140 56.2 47.1 71 9.7 N | 357 11.5 N | 2 63.7 40.4
5/6/26 - 2130 55.4 48.1 76 8.4 N | 5 9.9 N | 354 63.7 40.4
5/6/26 - 2120 55.3 48.2 77 9.8 N | 10 11.0 N | 11 63.7 40.4
5/6/26 - 2110 55.3 47.9 76 9.8 N | 6 11.5 N | 6 63.7 40.4
5/6/26 - 2100 55.2 47.8 76 10.8 N | 357 11.8 N | 352 63.7 40.4
5/6/26 - 2050 55.5 47.7 75 10.7 NNW | 346 11.8 NNW | 345 63.7 40.4
5/6/26 - 2040 55.8 47.5 74 12.0 NNW | 338 14.5 NNW | 342 63.7 40.4
5/6/26 - 2030 56.3 47.2 71 13.2 NNW | 336 15.6 NNW | 339 63.7 40.4
5/6/26 - 2020 56.5 47.0 70 12.8 NNW | 332 15.3 NNW | 331 63.7 40.4
5/6/26 - 2010 56.7 46.7 69 12.7 NNW | 328 16.0 NNW | 335 63.7 40.4
5/6/26 - 2000 57.2 46.2 67 13.6 NNW | 330 15.9 NNW | 331 63.7 40.4
5/6/26 - 1950 57.2 46.4 67 13.5 NNW | 330 16.0 NNW | 336 63.7 40.4
5/6/26 - 1940 57.1 47.2 70 11.7 NW | 321 14.8 NW | 324 63.7 40.4
5/6/26 - 1930 57.7 46.9 67 12.2 NW | 322 15.7 NW | 323 63.7 40.4
5/6/26 - 1920 57.8 47.3 68 11.5 NW | 325 15.3 NW | 325 63.7 40.4
5/6/26 - 1910 57.7 48.2 71 8.3 NW | 314 13.5 NW | 323 63.7 40.4
5/6/26 - 1900 57.6 49.2 73 6.3 WNW | 292 8.8 NW | 305 63.7 40.4
5/6/26 - 1850 57.7 49.5 74 6.7 W | 263 9.9 WSW | 253 63.7 40.4
5/6/26 - 1840 58.6 49.2 71 7.5 W | 270 10.2 WSW | 258 63.7 40.4
5/6/26 - 1830 58.2 49.1 72 8.9 WSW | 249 13.3 WSW | 244 63.7 40.4
5/6/26 - 1820 58.5 49.4 72 8.8 WSW | 242 12.1 WSW | 246 63.7 40.4
5/6/26 - 1810 58.8 49.2 70 9.1 W | 260 11.9 WSW | 255 63.7 40.4
5/6/26 - 1800 59.5 49.0 68 10.5 WSW | 252 15.6 WSW | 244 63.7 40.4
5/6/26 - 1750 60.8 48.9 65 10.0 WSW | 246 14.4 WSW | 256 63.7 40.4
5/6/26 - 1740 60.5 47.7 62 12.9 WSW | 258 17.3 WSW | 245 63.7 40.4
5/6/26 - 1730 61.0 47.8 62 14.4 WSW | 255 20.5 W | 269 63.7 40.4
5/6/26 - 1720 62.5 45.8 54 12.5 WSW | 258 20.8 WSW | 251 63.7 40.4
5/6/26 - 1710 62.6 45.3 53 12.9 W | 261 20.5 W | 269 63.7 40.4
5/6/26 - 1700 62.4 45.9 55 15.9 WSW | 254 21.4 W | 262 63.7 40.4
5/6/26 - 1650 62.5 41.0 45 14.3 W | 269 21.8 W | 273 63.7 40.4
5/6/26 - 1640 62.5 41.2 46 15.9 W | 273 20.6 WNW | 283 63.7 40.4
5/6/26 - 1630 61.9 40.6 45 15.5 WNW | 290 21.0 WNW | 282 63.7 40.4
5/6/26 - 1620 62.6 40.8 45 14.1 W | 280 21.2 WNW | 284 63.7 40.4
5/6/26 - 1610 62.1 40.7 45 14.2 W | 279 22.3 WSW | 255 63.7 40.4
5/6/26 - 1600 61.8 40.5 45 13.5 W | 268 21.1 WSW | 255 63.7 40.4
5/6/26 - 1550 62.2 40.8 45 13.7 W | 267 22.9 WNW | 287 63.7 40.4
5/6/26 - 1540 61.4 40.4 46 14.2 W | 264 20.6 W | 261 63.7 40.4
5/6/26 - 1530 61.9 40.8 46 11.1 WSW | 254 21.6 W | 276 63.7 40.4
5/6/26 - 1520 61.3 40.4 46 11.5 W | 277 16.3 W | 262 62.5 40.4
5/6/26 - 1510 61.5 40.6 46 10.2 W | 266 16.8 W | 264 62.5 40.4
5/6/26 - 1500 60.6 40.3 47 10.7 W | 269 17.8 W | 272 61.9 40.4
5/6/26 - 1450 61.0 40.7 47 10.5 W | 276 17.7 W | 267 61.9 40.4
5/6/26 - 1440 60.6 40.6 48 11.3 W | 269 20.1 W | 270 61.6 40.4
5/6/26 - 1430 60.2 40.9 49 8.8 WNW | 282 15.3 WNW | 299 61.3 40.4
5/6/26 - 1420 59.6 41.0 50 9.1 W | 274 16.4 W | 281 60.9 40.4
5/6/26 - 1410 58.8 40.8 51 9.3 W | 271 15.5 WNW | 289 59.6 40.4
5/6/26 - 1400 59.1 41.2 51 10.0 W | 263 17.9 W | 276 59.6 40.4
5/6/26 - 1350 58.3 41.0 52 9.9 W | 270 16.2 W | 280 58.9 40.4
5/6/26 - 1340 58.3 41.4 53 9.6 W | 271 17.4 WSW | 254 58.9 40.4
5/6/26 - 1330 57.8 41.5 54 10.2 W | 269 16.4 W | 271 58.4 40.4
5/6/26 - 1320 57.3 41.2 55 9.2 W | 262 14.9 W | 267 57.9 40.4
5/6/26 - 1310 57.0 41.2 55 10.0 W | 261 17.7 W | 264 57.9 40.4
5/6/26 - 1300 56.3 41.1 56 9.1 WSW | 258 14.8 W | 263 57.2 40.4
5/6/26 - 1250 56.6 41.6 57 9.2 WSW | 257 15.3 W | 259 57.2 40.4
5/6/26 - 1240 56.0 41.4 58 9.0 WSW | 254 15.1 WSW | 243 56.7 40.4
5/6/26 - 1230 56.2 41.5 58 9.3 W | 260 15.2 WSW | 253 56.7 40.4
5/6/26 - 1220 55.7 41.6 59 7.6 WSW | 245 13.3 WSW | 257 56.7 40.4
5/6/26 - 1210 55.3 41.5 60 8.0 SW | 234 14.1 W | 267 56.0 40.4
5/6/26 - 1200 55.0 41.8 61 7.1 SW | 226 12.7 WSW | 246 55.8 40.4
5/6/26 - 1150 54.3 41.6 62 5.7 WSW | 240 12.9 WSW | 253 55.2 40.4
5/6/26 - 1140 53.8 41.5 63 7.8 WSW | 238 14.1 WSW | 249 54.6 40.4
5/6/26 - 1130 52.8 41.0 64 5.8 WSW | 240 10.2 WSW | 252 53.7 40.4
5/6/26 - 1120 52.0 40.9 66 5.5 WSW | 248 10.7 SW | 221 52.6 40.4
5/6/26 - 1110 51.8 41.3 67 6.7 WSW | 245 12.1 WSW | 258 52.3 40.4
5/6/26 - 1100 51.0 40.9 68 7.1 WSW | 239 11.8 WSW | 239 51.6 40.4
5/6/26 - 1050 50.6 41.3 70 5.7 WSW | 248 9.7 WSW | 250 51.6 40.4
5/6/26 - 1040 50.3 41.6 72 6.6 WSW | 250 10.5 WNW | 290 51.4 40.4
5/6/26 - 1030 49.9 41.7 73 5.8 SW | 230 9.5 SSW | 209 51.4 40.4
5/6/26 - 1020 49.8 41.8 74 7.1 WSW | 256 11.2 WSW | 245 51.4 40.4
5/6/26 - 1010 50.2 42.0 73 5.1 SW | 230 9.3 SW | 215 51.4 40.4
5/6/26 - 1000 49.5 41.5 74 4.8 SW | 221 8.6 SW | 218 51.4 40.4
5/6/26 - 0950 49.7 41.7 74 4.3 SW | 220 6.6 SSW | 202 51.4 40.4
5/6/26 - 0940 50.4 41.6 72 3.2 SSE | 158 6.3 SSE | 155 51.4 40.4
5/6/26 - 0930 50.2 41.8 73 2.2 SSW | 204 5.1 NE | 43 51.4 40.4
5/6/26 - 0920 48.4 41.1 76 2.0 WSW | 253 4.2 W | 271 51.1 40.4
5/6/26 - 0910 50.1 42.1 74 1.7 NNE | 26 5.0 ESE | 114 51.1 40.4
5/6/26 - 0900 49.6 41.1 72 1.9 N | 349 3.7 WSW | 257 50.4 40.4
5/6/26 - 0850 48.7 40.7 74 3.2 NNE | 15 5.3 NE | 35 49.7 40.4
5/6/26 - 0840 48.0 40.6 75 2.9 N | 8 5.0 NNE | 32 48.6 40.4
5/6/26 - 0830 47.0 40.4 78 2.9 NNW | 342 5.3 NNW | 344 47.4 40.4
5/6/26 - 0820 45.8 39.7 79 4.3 NNW | 331 5.9 NW | 326 47.0 40.4
5/6/26 - 0810 46.2 39.9 78 5.1 NNW | 330 7.3 NW | 325 47.0 40.4
5/6/26 - 0800 46.3 39.4 77 6.5 N | 354 8.3 NNW | 347 46.9 40.4
5/6/26 - 0750 45.8 39.1 77 6.7 N | 349 8.4 NNW | 346 45.9 40.4
5/6/26 - 0740 45.4 39.1 79 7.8 N | 352 9.6 N | 354 45.8 40.4
5/6/26 - 0730 45.0 39.4 81 7.7 N | 351 9.4 N | 354 45.3 40.4
5/6/26 - 0720 44.8 39.1 80 8.9 NNW | 336 10.8 NW | 325 45.0 40.4
5/6/26 - 0710 44.5 38.8 80 8.7 NNW | 338 12.6 NW | 325 44.6 40.4
5/6/26 - 0700 44.2 38.8 81 8.6 NNW | 336 12.1 NW | 322 44.6 40.4
5/6/26 - 0650 44.3 38.6 80 9.7 NNW | 335 13.2 NNW | 334 44.6 40.4
5/6/26 - 0640 43.9 38.8 82 10.2 NNW | 340 15.0 NW | 312 44.6 40.4
5/6/26 - 0630 43.4 38.9 84 8.9 N | 357 12.0 NNW | 346 43.6 40.4
5/6/26 - 0620 43.1 38.8 85 8.4 N | 358 9.1 N | 354 43.2 40.4
5/6/26 - 0610 43.0 38.9 85 8.6 N | 356 9.4 N | 354 43.1 40.4
5/6/26 - 0600 42.8 38.8 86 8.8 N | 356 9.9 N | 0 42.9 40.4
5/6/26 - 0550 42.4 38.5 86 9.9 N | 351 10.6 N | 352 42.8 40.4
5/6/26 - 0540 42.1 38.1 85 9.6 N | 354 10.5 N | 353 42.2 40.4
5/6/26 - 0530 42.2 38.1 86 9.8 N | 354 11.0 N | 349 42.2 40.4
5/6/26 - 0520 42.1 38.1 86 9.9 N | 353 11.0 N | 352 42.2 40.4
5/6/26 - 0510 42.0 38.0 86 9.7 N | 359 10.8 N | 0 42.0 40.4
5/6/26 - 0500 42.0 37.8 85 10.6 N | 354 11.5 N | 0 42.0 40.4
5/6/26 - 0450 41.8 38.1 86 10.3 NNW | 347 11.7 N | 352 41.9 40.4
5/6/26 - 0440 41.6 38.0 87 9.0 NNW | 330 11.5 NNW | 333 41.8 40.4
5/6/26 - 0430 41.5 38.6 89 8.8 NNW | 338 10.5 NNW | 329 41.8 40.4
5/6/26 - 0420 41.4 38.9 91 10.3 N | 354 11.8 N | 352 41.8 40.4
5/6/26 - 0410 41.5 38.9 91 11.4 NNW | 346 12.9 NNW | 346 41.8 40.4
5/6/26 - 0400 41.5 39.1 91 11.6 N | 349 12.9 NNW | 346 41.8 40.4
5/6/26 - 0350 41.5 39.1 91 11.5 N | 349 12.5 NNW | 348 41.8 40.4
5/6/26 - 0340 41.3 39.6 93 10.7 NNW | 348 12.6 NNW | 347 41.8 40.4
5/6/26 - 0330 41.4 39.5 93 9.3 N | 352 10.5 N | 351 41.8 40.4
5/6/26 - 0320 41.6 39.3 92 9.6 N | 352 10.7 NNW | 347 41.8 40.4
5/6/26 - 0310 41.5 39.2 92 9.1 N | 356 10.4 N | 0 41.7 40.4
5/6/26 - 0300 41.0 39.9 96 10.7 N | 359 11.6 N | 354 41.4 40.4
5/6/26 - 0250 40.7 40.7 100 10.2 N | 359 11.6 N | 0 41.0 40.4
5/6/26 - 0240 40.6 40.6 100 10.9 N | 355 13.7 N | 351 41.0 40.4
5/6/26 - 0230 40.7 40.7 100 10.7 N | 360 11.7 N | 354 41.0 40.4
5/6/26 - 0220 40.7 40.7 100 10.6 N | 1 11.8 N | 0 41.0 40.4
5/6/26 - 0210 40.6 40.6 100 10.5 NNE | 12 11.3 NNE | 12 41.0 40.4
5/6/26 - 0200 40.5 40.5 100 10.7 NNE | 16 12.4 NNE | 13 41.0 40.4
5/6/26 - 0150 40.5 40.5 100 9.8 NNE | 13 12.1 N | 8 41.0 40.4
5/6/26 - 0140 40.6 40.6 100 10.3 N | 11 12.4 N | 6 41.0 40.4
5/6/26 - 0130 40.6 40.6 100 9.3 N | 1 11.4 N | 3 41.0 40.4
5/6/26 - 0120 40.7 40.7 100 8.1 N | 360 9.5 N | 354 41.0 40.5
5/6/26 - 0110 40.9 40.9 100 7.1 N | 355 8.8 N | 353 41.0 40.6
5/6/26 - 0100 41.0 40.9 100 6.4 N | 360 7.9 NNW | 348 49.0 38.6
5/6/26 - 0050 40.9 40.9 100 8.3 NNW | 341 10.9 NNW | 345 49.0 38.6
5/6/26 - 0040 40.7 40.6 100 7.6 NW | 326 9.9 NW | 320 49.0 38.6
5/6/26 - 0030 40.2 40.2 100 5.9 NW | 314 7.6 NNW | 330 49.0 38.6
5/6/26 - 0020 40.1 40.0 100 6.2 NW | 307 7.7 WNW | 301 49.0 38.6
Max 62.6 49.5 100 15.9 - 22.9 - 63.7 40.6
Avg 51.8 42.2 72 8.9 - 12.3 - - -
Min 40.1 37.8 45 1.7 - 3.7 - 41.0 38.6